sensor_id;sensor_type;location;lat;lon;timestamp;pressure;altitude;pressure_sealevel;temperature;humidity
79129;BME280;68529;43.286;23.360;2023-11-21T00:00:24;98977.16;;;8.78;55.47
79129;BME280;68529;43.286;23.360;2023-11-21T00:02:50;98975.34;;;8.80;55.42
79129;BME280;68529;43.286;23.360;2023-11-21T00:05:15;98965.91;;;8.74;55.58
79129;BME280;68529;43.286;23.360;2023-11-21T00:07:41;98968.09;;;8.60;55.87
79129;BME280;68529;43.286;23.360;2023-11-21T00:10:08;98962.16;;;8.55;55.89
79129;BME280;68529;43.286;23.360;2023-11-21T00:12:34;98970.34;;;8.45;56.13
79129;BME280;68529;43.286;23.360;2023-11-21T00:15:00;98970.44;;;8.42;56.21
79129;BME280;68529;43.286;23.360;2023-11-21T00:17:25;98960.06;;;8.39;56.43
79129;BME280;68529;43.286;23.360;2023-11-21T00:19:50;98968.72;;;8.41;56.48
79129;BME280;68529;43.286;23.360;2023-11-21T00:22:19;98971.34;;;8.41;56.69
79129;BME280;68529;43.286;23.360;2023-11-21T00:24:45;98965.44;;;8.34;56.69
79129;BME280;68529;43.286;23.360;2023-11-21T00:27:10;98961.16;;;8.32;56.92
79129;BME280;68529;43.286;23.360;2023-11-21T00:29:36;98968.19;;;8.30;56.74
79129;BME280;68529;43.286;23.360;2023-11-21T00:32:01;98965.91;;;8.17;57.06
79129;BME280;68529;43.286;23.360;2023-11-21T00:34:27;98965.06;;;8.17;57.54
79129;BME280;68529;43.286;23.360;2023-11-21T00:36:52;98961.63;;;8.15;57.06
79129;BME280;68529;43.286;23.360;2023-11-21T00:39:18;98966.25;;;8.05;57.31
79129;BME280;68529;43.286;23.360;2023-11-21T00:41:43;98971.66;;;7.99;57.49
79129;BME280;68529;43.286;23.360;2023-11-21T00:44:10;98967.59;;;7.89;57.70
79129;BME280;68529;43.286;23.360;2023-11-21T00:46:36;98965.16;;;7.83;57.73
79129;BME280;68529;43.286;23.360;2023-11-21T00:49:02;98964.28;;;7.83;57.59
79129;BME280;68529;43.286;23.360;2023-11-21T00:51:29;98961.72;;;7.81;57.99
79129;BME280;68529;43.286;23.360;2023-11-21T00:53:55;98963.69;;;7.73;58.12
79129;BME280;68529;43.286;23.360;2023-11-21T00:56:20;98958.28;;;7.79;57.94
79129;BME280;68529;43.286;23.360;2023-11-21T00:58:46;98970.25;;;7.88;58.04
79129;BME280;68529;43.286;23.360;2023-11-21T01:01:18;98965.53;;;7.70;58.15
79129;BME280;68529;43.286;23.360;2023-11-21T01:03:44;98959.53;;;7.66;58.29
79129;BME280;68529;43.286;23.360;2023-11-21T01:06:11;98959.66;;;7.61;58.70
79129;BME280;68529;43.286;23.360;2023-11-21T01:08:36;98955.94;;;7.70;58.43
79129;BME280;68529;43.286;23.360;2023-11-21T01:11:01;98946.94;;;7.80;58.51
79129;BME280;68529;43.286;23.360;2023-11-21T01:13:27;98950.16;;;7.90;58.01
79129;BME280;68529;43.286;23.360;2023-11-21T01:15:53;98950.91;;;7.93;58.17
79129;BME280;68529;43.286;23.360;2023-11-21T01:18:19;98955.72;;;7.78;58.35
79129;BME280;68529;43.286;23.360;2023-11-21T01:20:44;98948.47;;;7.87;58.10
79129;BME280;68529;43.286;23.360;2023-11-21T01:23:14;98955.41;;;7.88;58.41
79129;BME280;68529;43.286;23.360;2023-11-21T01:25:40;98960.69;;;7.87;58.34
79129;BME280;68529;43.286;23.360;2023-11-21T01:28:05;98955.59;;;7.82;58.39
79129;BME280;68529;43.286;23.360;2023-11-21T01:30:31;98946.06;;;7.80;58.62
79129;BME280;68529;43.286;23.360;2023-11-21T01:32:57;98952.16;;;7.80;58.66
79129;BME280;68529;43.286;23.360;2023-11-21T01:35:23;98952.97;;;7.82;58.41
79129;BME280;68529;43.286;23.360;2023-11-21T01:37:48;98954.47;;;7.91;58.56
79129;BME280;68529;43.286;23.360;2023-11-21T01:40:14;98953.50;;;7.95;58.28
79129;BME280;68529;43.286;23.360;2023-11-21T01:42:40;98951.44;;;8.06;58.13
79129;BME280;68529;43.286;23.360;2023-11-21T01:45:06;98956.06;;;7.96;58.57
79129;BME280;68529;43.286;23.360;2023-11-21T01:47:33;98948.56;;;7.84;58.82
79129;BME280;68529;43.286;23.360;2023-11-21T01:49:59;98949.94;;;7.97;58.13
79129;BME280;68529;43.286;23.360;2023-11-21T01:52:25;98949.16;;;7.94;58.14
79129;BME280;68529;43.286;23.360;2023-11-21T01:54:51;98938.16;;;7.83;58.78
79129;BME280;68529;43.286;23.360;2023-11-21T01:57:17;98940.97;;;7.75;58.79
79129;BME280;68529;43.286;23.360;2023-11-21T01:59:42;98941.38;;;7.61;58.91
79129;BME280;68529;43.286;23.360;2023-11-21T02:02:09;98939.34;;;7.71;58.87
79129;BME280;68529;43.286;23.360;2023-11-21T02:04:35;98941.06;;;7.72;59.02
79129;BME280;68529;43.286;23.360;2023-11-21T02:07:02;98936.72;;;7.71;58.78
79129;BME280;68529;43.286;23.360;2023-11-21T02:09:31;98935.88;;;7.71;58.77
79129;BME280;68529;43.286;23.360;2023-11-21T02:12:03;98937.72;;;7.67;59.11
79129;BME280;68529;43.286;23.360;2023-11-21T02:14:29;98938.59;;;7.68;59.08
79129;BME280;68529;43.286;23.360;2023-11-21T02:16:56;98937.66;;;7.70;58.80
79129;BME280;68529;43.286;23.360;2023-11-21T02:19:23;98928.88;;;7.71;58.74
79129;BME280;68529;43.286;23.360;2023-11-21T02:21:51;98940.28;;;7.69;58.91
79129;BME280;68529;43.286;23.360;2023-11-21T02:24:19;98941.16;;;7.69;58.85
79129;BME280;68529;43.286;23.360;2023-11-21T02:26:45;98947.34;;;7.65;58.96
79129;BME280;68529;43.286;23.360;2023-11-21T02:29:11;98954.69;;;7.52;59.17
79129;BME280;68529;43.286;23.360;2023-11-21T02:31:38;98956.34;;;7.55;59.29
79129;BME280;68529;43.286;23.360;2023-11-21T02:34:15;98955.19;;;7.65;59.26
79129;BME280;68529;43.286;23.360;2023-11-21T02:36:40;98949.88;;;7.68;58.75
79129;BME280;68529;43.286;23.360;2023-11-21T02:39:08;98948.25;;;7.64;58.93
79129;BME280;68529;43.286;23.360;2023-11-21T02:41:33;98945.00;;;7.56;59.49
79129;BME280;68529;43.286;23.360;2023-11-21T02:44:00;98936.38;;;7.52;59.26
79129;BME280;68529;43.286;23.360;2023-11-21T02:46:26;98937.09;;;7.59;59.47
79129;BME280;68529;43.286;23.360;2023-11-21T02:48:51;98936.81;;;7.68;59.25
79129;BME280;68529;43.286;23.360;2023-11-21T02:51:19;98934.03;;;7.74;59.28
79129;BME280;68529;43.286;23.360;2023-11-21T02:53:44;98933.56;;;7.60;59.39
79129;BME280;68529;43.286;23.360;2023-11-21T02:56:12;98928.31;;;7.61;59.51
79129;BME280;68529;43.286;23.360;2023-11-21T02:58:37;98930.00;;;7.62;59.21
79129;BME280;68529;43.286;23.360;2023-11-21T03:01:03;98924.66;;;7.67;59.14
79129;BME280;68529;43.286;23.360;2023-11-21T03:03:32;98924.41;;;7.44;59.57
79129;BME280;68529;43.286;23.360;2023-11-21T03:05:57;98925.16;;;7.49;60.04
79129;BME280;68529;43.286;23.360;2023-11-21T03:08:23;98937.16;;;7.56;59.75
79129;BME280;68529;43.286;23.360;2023-11-21T03:10:48;98934.56;;;7.54;59.96
79129;BME280;68529;43.286;23.360;2023-11-21T03:13:13;98935.44;;;7.55;60.08
79129;BME280;68529;43.286;23.360;2023-11-21T03:15:39;98941.00;;;7.43;60.39
79129;BME280;68529;43.286;23.360;2023-11-21T03:18:04;98932.78;;;7.24;61.04
79129;BME280;68529;43.286;23.360;2023-11-21T03:20:30;98925.75;;;7.26;60.78
79129;BME280;68529;43.286;23.360;2023-11-21T03:22:55;98928.13;;;7.37;60.53
79129;BME280;68529;43.286;23.360;2023-11-21T03:25:20;98914.84;;;7.43;60.49
79129;BME280;68529;43.286;23.360;2023-11-21T03:27:49;98913.66;;;7.54;60.06
79129;BME280;68529;43.286;23.360;2023-11-21T03:30:14;98905.53;;;7.65;60.06
79129;BME280;68529;43.286;23.360;2023-11-21T03:32:40;98902.91;;;7.65;60.36
79129;BME280;68529;43.286;23.360;2023-11-21T03:35:05;98898.44;;;7.70;60.54
79129;BME280;68529;43.286;23.360;2023-11-21T03:37:31;98893.84;;;7.78;60.20
79129;BME280;68529;43.286;23.360;2023-11-21T03:39:56;98899.00;;;7.80;59.84
79129;BME280;68529;43.286;23.360;2023-11-21T03:42:22;98898.16;;;7.79;59.96
79129;BME280;68529;43.286;23.360;2023-11-21T03:44:47;98899.94;;;7.79;60.16
79129;BME280;68529;43.286;23.360;2023-11-21T03:47:12;98910.09;;;7.88;60.08
79129;BME280;68529;43.286;23.360;2023-11-21T03:49:38;98907.38;;;7.92;59.59
79129;BME280;68529;43.286;23.360;2023-11-21T03:52:04;98915.94;;;7.97;59.77
79129;BME280;68529;43.286;23.360;2023-11-21T03:54:30;98926.56;;;7.91;59.55
79129;BME280;68529;43.286;23.360;2023-11-21T03:56:55;98925.69;;;7.92;59.68
79129;BME280;68529;43.286;23.360;2023-11-21T03:59:21;98927.59;;;7.86;59.95
79129;BME280;68529;43.286;23.360;2023-11-21T04:01:49;98926.88;;;7.81;60.19
79129;BME280;68529;43.286;23.360;2023-11-21T04:04:15;98919.84;;;7.83;60.03
79129;BME280;68529;43.286;23.360;2023-11-21T04:06:41;98918.97;;;7.82;60.14
79129;BME280;68529;43.286;23.360;2023-11-21T04:09:06;98923.25;;;7.85;60.42
79129;BME280;68529;43.286;23.360;2023-11-21T04:11:32;98924.94;;;7.87;60.11
79129;BME280;68529;43.286;23.360;2023-11-21T04:13:57;98917.06;;;7.89;60.35
79129;BME280;68529;43.286;23.360;2023-11-21T04:16:22;98923.16;;;7.89;60.00
79129;BME280;68529;43.286;23.360;2023-11-21T04:18:48;98917.00;;;7.90;60.34
79129;BME280;68529;43.286;23.360;2023-11-21T04:21:13;98921.69;;;7.79;60.46
79129;BME280;68529;43.286;23.360;2023-11-21T04:23:39;98920.00;;;7.78;60.59
79129;BME280;68529;43.286;23.360;2023-11-21T04:26:05;98920.00;;;7.78;60.47
79129;BME280;68529;43.286;23.360;2023-11-21T04:28:31;98920.16;;;7.72;60.48
79129;BME280;68529;43.286;23.360;2023-11-21T04:30:56;98915.00;;;7.69;60.70
79129;BME280;68529;43.286;23.360;2023-11-21T04:33:22;98911.53;;;7.69;60.76
79129;BME280;68529;43.286;23.360;2023-11-21T04:35:47;98909.69;;;7.72;60.57
79129;BME280;68529;43.286;23.360;2023-11-21T04:38:13;98916.84;;;7.66;61.12
79129;BME280;68529;43.286;23.360;2023-11-21T04:40:39;98907.25;;;7.66;61.21
79129;BME280;68529;43.286;23.360;2023-11-21T04:43:04;98906.38;;;7.66;61.15
79129;BME280;68529;43.286;23.360;2023-11-21T04:45:30;98895.84;;;7.69;60.88
79129;BME280;68529;43.286;23.360;2023-11-21T04:47:55;98902.91;;;7.65;60.81
79129;BME280;68529;43.286;23.360;2023-11-21T04:50:21;98898.47;;;7.69;61.04
79129;BME280;68529;43.286;23.360;2023-11-21T04:52:46;98893.16;;;7.72;60.52
79129;BME280;68529;43.286;23.360;2023-11-21T04:55:12;98894.00;;;7.72;60.67
79129;BME280;68529;43.286;23.360;2023-11-21T04:57:38;98895.84;;;7.69;60.88
79129;BME280;68529;43.286;23.360;2023-11-21T05:00:04;98894.97;;;7.70;60.98
79129;BME280;68529;43.286;23.360;2023-11-21T05:02:34;98895.13;;;7.63;61.05
79129;BME280;68529;43.286;23.360;2023-11-21T05:05:00;98890.84;;;7.61;60.77
79129;BME280;68529;43.286;23.360;2023-11-21T05:07:25;98877.81;;;7.59;60.90
79129;BME280;68529;43.286;23.360;2023-11-21T05:09:54;98883.97;;;7.57;60.98
79129;BME280;68529;43.286;23.360;2023-11-21T05:12:21;98888.22;;;7.61;61.25
79129;BME280;68529;43.286;23.360;2023-11-21T05:14:48;98890.63;;;7.69;61.08
79129;BME280;68529;43.286;23.360;2023-11-21T05:17:14;98892.19;;;7.74;61.05
79129;BME280;68529;43.286;23.360;2023-11-21T05:19:39;98897.66;;;7.67;61.33
79129;BME280;68529;43.286;23.360;2023-11-21T05:22:05;98898.47;;;7.69;61.17
79129;BME280;68529;43.286;23.360;2023-11-21T05:24:31;98901.00;;;7.72;61.21
79129;BME280;68529;43.286;23.360;2023-11-21T05:26:56;98899.06;;;7.78;60.69
79129;BME280;68529;43.286;23.360;2023-11-21T05:29:22;98899.09;;;7.77;60.73
79129;BME280;68529;43.286;23.360;2023-11-21T05:31:47;98910.41;;;7.77;61.11
79129;BME280;68529;43.286;23.360;2023-11-21T05:34:13;98908.66;;;7.78;61.11
79129;BME280;68529;43.286;23.360;2023-11-21T05:36:38;98911.13;;;7.82;60.88
79129;BME280;68529;43.286;23.360;2023-11-21T05:39:03;98912.94;;;7.80;60.81
79129;BME280;68529;43.286;23.360;2023-11-21T05:41:29;98904.97;;;7.85;61.10
79129;BME280;68529;43.286;23.360;2023-11-21T05:43:55;98908.50;;;7.84;60.85
79129;BME280;68529;43.286;23.360;2023-11-21T05:46:20;98907.38;;;7.92;60.73
79129;BME280;68529;43.286;23.360;2023-11-21T05:48:46;98901.22;;;7.93;61.02
79129;BME280;68529;43.286;23.360;2023-11-21T05:51:12;98891.53;;;7.97;60.90
79129;BME280;68529;43.286;23.360;2023-11-21T05:53:39;98896.81;;;7.95;61.04
79129;BME280;68529;43.286;23.360;2023-11-21T05:56:04;98896.38;;;7.81;61.23
79129;BME280;68529;43.286;23.360;2023-11-21T05:58:30;98891.59;;;7.95;61.10
79129;BME280;68529;43.286;23.360;2023-11-21T06:00:55;98898.31;;;8.04;60.98
79129;BME280;68529;43.286;23.360;2023-11-21T06:03:20;98901.84;;;8.01;60.87
79129;BME280;68529;43.286;23.360;2023-11-21T06:05:46;98904.78;;;7.91;60.80
79129;BME280;68529;43.286;23.360;2023-11-21T06:08:11;98910.78;;;7.94;61.07
79129;BME280;68529;43.286;23.360;2023-11-21T06:10:36;98916.72;;;8.01;60.82
79129;BME280;68529;43.286;23.360;2023-11-21T06:13:02;98913.31;;;7.97;61.16
79129;BME280;68529;43.286;23.360;2023-11-21T06:15:29;98924.47;;;8.04;60.76
79129;BME280;68529;43.286;23.360;2023-11-21T06:17:54;98924.41;;;8.05;61.23
79129;BME280;68529;43.286;23.360;2023-11-21T06:20:21;98927.81;;;8.07;60.89
79129;BME280;68529;43.286;23.360;2023-11-21T06:22:49;98925.09;;;8.12;61.19
79129;BME280;68529;43.286;23.360;2023-11-21T06:25:15;98917.91;;;8.18;60.98
79129;BME280;68529;43.286;23.360;2023-11-21T06:27:46;98909.75;;;8.29;60.94
79129;BME280;68529;43.286;23.360;2023-11-21T06:30:12;98908.63;;;8.38;60.86
79129;BME280;68529;43.286;23.360;2023-11-21T06:32:39;98901.25;;;8.50;60.16
79129;BME280;68529;43.286;23.360;2023-11-21T06:35:05;98899.53;;;8.49;60.43
79129;BME280;68529;43.286;23.360;2023-11-21T06:37:32;98911.72;;;8.50;60.58
79129;BME280;68529;43.286;23.360;2023-11-21T06:39:58;98903.63;;;8.58;60.43
79129;BME280;68529;43.286;23.360;2023-11-21T06:42:25;98902.44;;;8.68;60.32
79129;BME280;68529;43.286;23.360;2023-11-21T06:44:51;98904.84;;;8.74;60.18
79129;BME280;68529;43.286;23.360;2023-11-21T06:47:22;98915.38;;;8.72;60.32
79129;BME280;68529;43.286;23.360;2023-11-21T06:49:50;98909.88;;;8.80;60.57
79129;BME280;68529;43.286;23.360;2023-11-21T06:52:16;98911.34;;;8.89;60.70
79129;BME280;68529;43.286;23.360;2023-11-21T06:54:41;98909.91;;;9.05;60.42
79129;BME280;68529;43.286;23.360;2023-11-21T06:57:07;98910.28;;;9.20;60.28
79129;BME280;68529;43.286;23.360;2023-11-21T06:59:33;98914.19;;;9.33;59.91
79129;BME280;68529;43.286;23.360;2023-11-21T07:01:58;98906.09;;;9.40;59.66
79129;BME280;68529;43.286;23.360;2023-11-21T07:04:24;98908.56;;;9.44;59.82
79129;BME280;68529;43.286;23.360;2023-11-21T07:06:51;98904.31;;;9.65;59.62
79129;BME280;68529;43.286;23.360;2023-11-21T07:09:16;98900.78;;;9.89;59.10
79129;BME280;68529;43.286;23.360;2023-11-21T07:11:42;98901.03;;;10.06;59.03
79129;BME280;68529;43.286;23.360;2023-11-21T07:14:07;98895.72;;;10.31;58.48
79129;BME280;68529;43.286;23.360;2023-11-21T07:16:37;98901.56;;;10.61;58.25
79129;BME280;68529;43.286;23.360;2023-11-21T07:19:06;98897.47;;;10.95;57.78
79129;BME280;68529;43.286;23.360;2023-11-21T07:21:35;98891.44;;;11.34;57.28
79129;BME280;68529;43.286;23.360;2023-11-21T07:24:02;98886.66;;;11.63;56.45
79129;BME280;68529;43.286;23.360;2023-11-21T07:26:27;98888.34;;;12.03;55.83
79129;BME280;68529;43.286;23.360;2023-11-21T07:28:53;98882.25;;;12.21;55.21
79129;BME280;68529;43.286;23.360;2023-11-21T07:31:19;98877.03;;;12.39;55.33
79129;BME280;68529;43.286;23.360;2023-11-21T07:33:47;98875.75;;;12.47;55.02
79129;BME280;68529;43.286;23.360;2023-11-21T07:36:13;98880.84;;;12.69;54.34
79129;BME280;68529;43.286;23.360;2023-11-21T07:38:39;98879.44;;;12.79;54.03
79129;BME280;68529;43.286;23.360;2023-11-21T07:41:05;98880.41;;;12.95;53.83
79129;BME280;68529;43.286;23.360;2023-11-21T07:43:33;98878.75;;;12.93;53.53
79129;BME280;68529;43.286;23.360;2023-11-21T07:46:04;98885.81;;;13.11;53.58
79129;BME280;68529;43.286;23.360;2023-11-21T07:48:30;98873.47;;;13.28;53.07
79129;BME280;68529;43.286;23.360;2023-11-21T07:50:57;98872.59;;;13.45;52.74
79129;BME280;68529;43.286;23.360;2023-11-21T07:53:23;98867.50;;;13.75;51.96
79129;BME280;68529;43.286;23.360;2023-11-21T07:55:49;98872.41;;;14.14;51.70
79129;BME280;68529;43.286;23.360;2023-11-21T07:58:14;98865.72;;;14.39;50.34
79129;BME280;68529;43.286;23.360;2023-11-21T08:00:40;98858.63;;;14.71;49.53
79129;BME280;68529;43.286;23.360;2023-11-21T08:03:05;98862.34;;;14.83;49.40
79129;BME280;68529;43.286;23.360;2023-11-21T08:05:31;98856.78;;;14.42;49.29
79129;BME280;68529;43.286;23.360;2023-11-21T08:07:57;98856.50;;;14.31;49.63
79129;BME280;68529;43.286;23.360;2023-11-21T08:10:22;98859.47;;;14.25;49.88
79129;BME280;68529;43.286;23.360;2023-11-21T08:12:47;98857.59;;;14.11;50.06
79129;BME280;68529;43.286;23.360;2023-11-21T08:15:14;98858.44;;;14.12;50.56
79129;BME280;68529;43.286;23.360;2023-11-21T08:17:39;98862.59;;;14.16;50.56
79129;BME280;68529;43.286;23.360;2023-11-21T08:20:05;98855.81;;;14.12;50.84
79129;BME280;68529;43.286;23.360;2023-11-21T08:22:31;98856.50;;;14.15;51.20
79129;BME280;68529;43.286;23.360;2023-11-21T08:24:57;98847.44;;;14.66;50.34
79129;BME280;68529;43.286;23.360;2023-11-21T08:27:23;98845.50;;;14.99;50.20
79129;BME280;68529;43.286;23.360;2023-11-21T08:29:48;98850.38;;;15.51;48.54
79129;BME280;68529;43.286;23.360;2023-11-21T08:32:14;98838.94;;;15.93;47.72
79129;BME280;68529;43.286;23.360;2023-11-21T08:34:40;98828.16;;;16.37;47.26
79129;BME280;68529;43.286;23.360;2023-11-21T08:37:08;98830.56;;;16.68;46.78
79129;BME280;68529;43.286;23.360;2023-11-21T08:39:33;98823.09;;;16.87;46.41
79129;BME280;68529;43.286;23.360;2023-11-21T08:41:58;98824.13;;;17.11;46.37
79129;BME280;68529;43.286;23.360;2023-11-21T08:44:24;98823.91;;;17.27;46.49
79129;BME280;68529;43.286;23.360;2023-11-21T08:46:50;98819.69;;;17.50;45.20
79129;BME280;68529;43.286;23.360;2023-11-21T08:49:15;98827.34;;;17.79;45.29
79129;BME280;68529;43.286;23.360;2023-11-21T08:51:41;98814.28;;;17.76;44.29
79129;BME280;68529;43.286;23.360;2023-11-21T08:54:06;98813.97;;;17.81;44.00
79129;BME280;68529;43.286;23.360;2023-11-21T08:56:34;98808.91;;;18.01;43.16
79129;BME280;68529;43.286;23.360;2023-11-21T08:59:03;98809.84;;;18.13;43.45
79129;BME280;68529;43.286;23.360;2023-11-21T09:01:31;98806.53;;;18.22;42.58
79129;BME280;68529;43.286;23.360;2023-11-21T09:03:58;98796.81;;;17.97;42.53
79129;BME280;68529;43.286;23.360;2023-11-21T09:06:24;98800.50;;;18.08;42.37
79129;BME280;68529;43.286;23.360;2023-11-21T09:08:50;98795.91;;;18.22;42.08
79129;BME280;68529;43.286;23.360;2023-11-21T09:11:17;98787.16;;;18.20;42.22
79129;BME280;68529;43.286;23.360;2023-11-21T09:13:42;98785.13;;;18.24;41.97
79129;BME280;68529;43.286;23.360;2023-11-21T09:16:08;98772.34;;;18.29;42.55
79129;BME280;68529;43.286;23.360;2023-11-21T09:18:33;98773.19;;;18.42;42.41
79129;BME280;68529;43.286;23.360;2023-11-21T09:20:59;98765.34;;;18.64;42.19
79129;BME280;68529;43.286;23.360;2023-11-21T09:23:24;98768.66;;;18.79;41.73
79129;BME280;68529;43.286;23.360;2023-11-21T09:25:50;98759.75;;;19.02;41.40
79129;BME280;68529;43.286;23.360;2023-11-21T09:28:17;98755.91;;;19.06;41.36
79129;BME280;68529;43.286;23.360;2023-11-21T09:30:43;98748.88;;;19.05;40.75
79129;BME280;68529;43.286;23.360;2023-11-21T09:33:08;98748.25;;;19.01;40.66
79129;BME280;68529;43.286;23.360;2023-11-21T09:35:37;98745.69;;;18.89;39.31
79129;BME280;68529;43.286;23.360;2023-11-21T09:38:03;98734.34;;;18.87;39.88
79129;BME280;68529;43.286;23.360;2023-11-21T09:40:35;98727.75;;;18.80;39.41
79129;BME280;68529;43.286;23.360;2023-11-21T09:43:06;98715.53;;;18.77;38.97
79129;BME280;68529;43.286;23.360;2023-11-21T09:45:35;98708.34;;;19.01;39.34
79129;BME280;68529;43.286;23.360;2023-11-21T09:48:01;98699.03;;;19.18;39.06
79129;BME280;68529;43.286;23.360;2023-11-21T09:50:27;98709.47;;;19.32;38.71
79129;BME280;68529;43.286;23.360;2023-11-21T09:55:18;98681.00;;;19.33;38.16
79129;BME280;68529;43.286;23.360;2023-11-21T09:57:47;98669.16;;;19.37;38.47
79129;BME280;68529;43.286;23.360;2023-11-21T10:00:14;98668.19;;;19.38;38.04
79129;BME280;68529;43.286;23.360;2023-11-21T10:02:43;98656.47;;;19.40;38.05
79129;BME280;68529;43.286;23.360;2023-11-21T10:05:09;98651.13;;;19.40;37.95
79129;BME280;68529;43.286;23.360;2023-11-21T10:07:38;98655.09;;;19.35;38.77
79129;BME280;68529;43.286;23.360;2023-11-21T10:10:07;98651.25;;;19.28;38.43
79129;BME280;68529;43.286;23.360;2023-11-21T10:12:35;98654.16;;;19.36;38.32
79129;BME280;68529;43.286;23.360;2023-11-21T10:15:02;98646.78;;;19.28;38.23
79129;BME280;68529;43.286;23.360;2023-11-21T10:17:28;98645.53;;;19.21;37.69
79129;BME280;68529;43.286;23.360;2023-11-21T10:19:56;98649.31;;;19.07;37.29
79129;BME280;68529;43.286;23.360;2023-11-21T10:22:22;98647.22;;;18.78;34.88
79129;BME280;68529;43.286;23.360;2023-11-21T10:24:48;98628.34;;;18.70;35.43
79129;BME280;68529;43.286;23.360;2023-11-21T10:27:14;98632.81;;;18.45;33.39
79129;BME280;68529;43.286;23.360;2023-11-21T10:29:39;98626.34;;;18.49;34.21
79129;BME280;68529;43.286;23.360;2023-11-21T10:32:05;98618.75;;;18.56;34.24
79129;BME280;68529;43.286;23.360;2023-11-21T10:34:31;98620.19;;;18.49;34.27
79129;BME280;68529;43.286;23.360;2023-11-21T10:36:56;98617.41;;;18.50;33.96
79129;BME280;68529;43.286;23.360;2023-11-21T10:39:24;98603.81;;;18.31;34.05
79129;BME280;68529;43.286;23.360;2023-11-21T10:41:53;98601.59;;;18.25;34.40
79129;BME280;68529;43.286;23.360;2023-11-21T10:44:20;98603.41;;;18.25;33.40
79129;BME280;68529;43.286;23.360;2023-11-21T10:46:50;98593.09;;;18.20;33.61
79129;BME280;68529;43.286;23.360;2023-11-21T10:49:20;98590.34;;;18.22;33.59
79129;BME280;68529;43.286;23.360;2023-11-21T10:51:45;98586.59;;;18.24;33.99
79129;BME280;68529;43.286;23.360;2023-11-21T10:54:17;98580.19;;;18.16;33.89
79129;BME280;68529;43.286;23.360;2023-11-21T10:56:42;98575.47;;;18.19;33.82
79129;BME280;68529;43.286;23.360;2023-11-21T10:59:12;98573.06;;;18.16;34.02
79129;BME280;68529;43.286;23.360;2023-11-21T11:01:42;98570.63;;;18.13;34.03
79129;BME280;68529;43.286;23.360;2023-11-21T11:04:09;98564.47;;;18.13;34.25
79129;BME280;68529;43.286;23.360;2023-11-21T11:06:41;98565.22;;;17.91;33.78
79129;BME280;68529;43.286;23.360;2023-11-21T11:09:08;98567.75;;;17.92;34.80
79129;BME280;68529;43.286;23.360;2023-11-21T11:11:39;98566.75;;;17.82;34.32
79129;BME280;68529;43.286;23.360;2023-11-21T11:14:08;98556.94;;;17.72;34.12
79129;BME280;68529;43.286;23.360;2023-11-21T11:16:36;98558.97;;;17.68;34.33
79129;BME280;68529;43.286;23.360;2023-11-21T11:19:05;98562.44;;;17.58;34.70
79129;BME280;68529;43.286;23.360;2023-11-21T11:30:45;98567.75;;;17.45;35.27
79129;BME280;68529;43.286;23.360;2023-11-21T11:35:59;98569.88;;;17.40;35.11
79129;BME280;68529;43.286;23.360;2023-11-21T11:38:31;98578.19;;;17.35;35.33
79129;BME280;68529;43.286;23.360;2023-11-21T11:41:02;98574.50;;;17.25;35.22
79129;BME280;68529;43.286;23.360;2023-11-21T11:43:29;98578.22;;;17.23;35.55
79129;BME280;68529;43.286;23.360;2023-11-21T11:45:59;98572.19;;;17.21;35.29
79129;BME280;68529;43.286;23.360;2023-11-21T11:48:29;98567.44;;;17.13;35.07
79129;BME280;68529;43.286;23.360;2023-11-21T11:51:04;98571.75;;;17.14;35.42
79129;BME280;68529;43.286;23.360;2023-11-21T11:53:41;98572.75;;;17.13;35.81
79129;BME280;68529;43.286;23.360;2023-11-21T11:56:27;98571.66;;;17.16;35.77
79129;BME280;68529;43.286;23.360;2023-11-21T11:58:54;98575.91;;;17.06;35.33
79129;BME280;68529;43.286;23.360;2023-11-21T12:01:21;98560.84;;;17.06;35.36
79129;BME280;68529;43.286;23.360;2023-11-21T12:04:23;98562.56;;;17.07;36.12
79129;BME280;68529;43.286;23.360;2023-11-21T12:06:52;98560.25;;;17.03;35.57
79129;BME280;68529;43.286;23.360;2023-11-21T12:09:19;98557.16;;;16.96;35.81
79129;BME280;68529;43.286;23.360;2023-11-21T12:11:47;98556.44;;;16.94;35.71
79129;BME280;68529;43.286;23.360;2023-11-21T12:14:14;98550.50;;;16.91;35.62
79129;BME280;68529;43.286;23.360;2023-11-21T12:16:40;98536.59;;;16.87;35.82
79129;BME280;68529;43.286;23.360;2023-11-21T12:19:05;98544.34;;;16.90;35.64
79129;BME280;68529;43.286;23.360;2023-11-21T12:21:31;98542.97;;;16.97;35.90
79129;BME280;68529;43.286;23.360;2023-11-21T12:23:58;98532.22;;;16.99;35.85
79129;BME280;68529;43.286;23.360;2023-11-21T12:26:24;98543.59;;;16.88;35.49
79129;BME280;68529;43.286;23.360;2023-11-21T12:28:55;98530.91;;;16.80;35.69
79129;BME280;68529;43.286;23.360;2023-11-21T12:31:24;98526.53;;;16.79;36.06
79129;BME280;68529;43.286;23.360;2023-11-21T12:33:50;98536.81;;;16.84;36.31
79129;BME280;68529;43.286;23.360;2023-11-21T12:36:16;98536.81;;;16.84;36.06
79129;BME280;68529;43.286;23.360;2023-11-21T12:38:42;98537.88;;;16.81;36.15
79129;BME280;68529;43.286;23.360;2023-11-21T12:41:09;98527.09;;;16.72;35.94
79129;BME280;68529;43.286;23.360;2023-11-21T12:43:35;98529.41;;;16.64;36.22
79129;BME280;68529;43.286;23.360;2023-11-21T12:46:08;98528.03;;;16.58;36.39
79129;BME280;68529;43.286;23.360;2023-11-21T12:48:46;98527.59;;;16.52;36.67
79129;BME280;68529;43.286;23.360;2023-11-21T12:51:12;98528.16;;;16.57;36.71
79129;BME280;68529;43.286;23.360;2023-11-21T12:53:40;98524.22;;;16.50;37.05
79129;BME280;68529;43.286;23.360;2023-11-21T12:56:15;98534.38;;;16.43;37.47
79129;BME280;68529;43.286;23.360;2023-11-21T12:58:44;98524.00;;;16.40;38.20
79129;BME280;68529;43.286;23.360;2023-11-21T13:01:13;98526.13;;;16.35;38.95
79129;BME280;68529;43.286;23.360;2023-11-21T13:03:43;98541.06;;;16.23;38.90
79129;BME280;68529;43.286;23.360;2023-11-21T13:06:10;98539.56;;;16.07;39.60